sensor_id;sensor_type;location;lat;lon;timestamp;P1;durP1;ratioP1;P2;durP2;ratioP2
6551;SDS011;3309;48.708;9.290;2023-03-26T00:01:02;0.50;;;0.50;;
6551;SDS011;3309;48.708;9.290;2023-03-26T00:03:32;0.70;;;0.70;;
6551;SDS011;3309;48.708;9.290;2023-03-26T00:06:05;0.60;;;0.60;;
6551;SDS011;3309;48.708;9.290;2023-03-26T00:08:32;0.70;;;0.70;;
6551;SDS011;3309;48.708;9.290;2023-03-26T00:10:58;0.60;;;0.60;;
6551;SDS011;3309;48.708;9.290;2023-03-26T00:13:25;0.60;;;0.60;;
6551;SDS011;3309;48.708;9.290;2023-03-26T00:15:51;0.70;;;0.70;;
6551;SDS011;3309;48.708;9.290;2023-03-26T00:18:17;0.60;;;0.60;;
6551;SDS011;3309;48.708;9.290;2023-03-26T00:20:49;0.70;;;0.70;;
6551;SDS011;3309;48.708;9.290;2023-03-26T00:23:15;0.70;;;0.70;;
6551;SDS011;3309;48.708;9.290;2023-03-26T00:25:41;0.70;;;0.70;;
6551;SDS011;3309;48.708;9.290;2023-03-26T00:28:09;0.70;;;0.70;;
6551;SDS011;3309;48.708;9.290;2023-03-26T00:30:35;0.60;;;0.60;;
6551;SDS011;3309;48.708;9.290;2023-03-26T00:33:05;0.63;;;0.63;;
6551;SDS011;3309;48.708;9.290;2023-03-26T00:35:33;0.60;;;0.60;;
6551;SDS011;3309;48.708;9.290;2023-03-26T00:38:00;0.60;;;0.60;;
6551;SDS011;3309;48.708;9.290;2023-03-26T00:40:26;0.70;;;0.70;;
6551;SDS011;3309;48.708;9.290;2023-03-26T00:42:53;0.60;;;0.60;;
6551;SDS011;3309;48.708;9.290;2023-03-26T00:45:20;0.67;;;0.67;;
6551;SDS011;3309;48.708;9.290;2023-03-26T00:47:46;0.80;;;0.80;;
6551;SDS011;3309;48.708;9.290;2023-03-26T00:50:12;0.60;;;0.60;;
6551;SDS011;3309;48.708;9.290;2023-03-26T00:52:43;0.77;;;0.77;;
6551;SDS011;3309;48.708;9.290;2023-03-26T00:55:10;0.60;;;0.60;;
6551;SDS011;3309;48.708;9.290;2023-03-26T00:57:36;0.70;;;0.70;;
6551;SDS011;3309;48.708;9.290;2023-03-26T01:00:05;0.67;;;0.67;;
6551;SDS011;3309;48.708;9.290;2023-03-26T01:02:35;0.70;;;0.70;;
6551;SDS011;3309;48.708;9.290;2023-03-26T01:05:25;0.80;;;0.80;;
6551;SDS011;3309;48.708;9.290;2023-03-26T01:07:49;0.70;;;0.70;;
6551;SDS011;3309;48.708;9.290;2023-03-26T01:10:15;0.70;;;0.70;;
6551;SDS011;3309;48.708;9.290;2023-03-26T01:12:41;0.70;;;0.70;;
6551;SDS011;3309;48.708;9.290;2023-03-26T01:15:08;0.70;;;0.70;;
6551;SDS011;3309;48.708;9.290;2023-03-26T01:17:34;0.60;;;0.60;;
6551;SDS011;3309;48.708;9.290;2023-03-26T01:22:31;0.70;;;0.70;;
6551;SDS011;3309;48.708;9.290;2023-03-26T01:25:00;0.63;;;0.63;;
6551;SDS011;3309;48.708;9.290;2023-03-26T01:29:54;0.60;;;0.60;;
6551;SDS011;3309;48.708;9.290;2023-03-26T01:32:28;0.50;;;0.50;;
6551;SDS011;3309;48.708;9.290;2023-03-26T01:40:12;0.60;;;0.60;;
6551;SDS011;3309;48.708;9.290;2023-03-26T01:42:47;0.60;;;0.60;;
6551;SDS011;3309;48.708;9.290;2023-03-26T01:45:17;0.70;;;0.70;;
6551;SDS011;3309;48.708;9.290;2023-03-26T01:47:46;0.60;;;0.60;;
6551;SDS011;3309;48.708;9.290;2023-03-26T01:50:12;0.53;;;0.53;;
6551;SDS011;3309;48.708;9.290;2023-03-26T01:52:38;0.70;;;0.70;;
6551;SDS011;3309;48.708;9.290;2023-03-26T01:55:04;0.63;;;0.63;;
6551;SDS011;3309;48.708;9.290;2023-03-26T01:57:35;0.60;;;0.60;;
6551;SDS011;3309;48.708;9.290;2023-03-26T02:00:06;0.70;;;0.70;;
6551;SDS011;3309;48.708;9.290;2023-03-26T02:02:49;0.60;;;0.60;;
6551;SDS011;3309;48.708;9.290;2023-03-26T02:05:21;0.60;;;0.60;;
6551;SDS011;3309;48.708;9.290;2023-03-26T02:08:05;0.60;;;0.60;;
6551;SDS011;3309;48.708;9.290;2023-03-26T02:10:43;0.57;;;0.57;;
6551;SDS011;3309;48.708;9.290;2023-03-26T02:13:11;0.70;;;0.70;;
6551;SDS011;3309;48.708;9.290;2023-03-26T02:15:38;0.60;;;0.60;;
6551;SDS011;3309;48.708;9.290;2023-03-26T02:18:04;0.60;;;0.60;;
6551;SDS011;3309;48.708;9.290;2023-03-26T02:20:30;0.60;;;0.60;;
6551;SDS011;3309;48.708;9.290;2023-03-26T02:22:57;0.63;;;0.63;;
6551;SDS011;3309;48.708;9.290;2023-03-26T02:25:23;0.57;;;0.57;;
6551;SDS011;3309;48.708;9.290;2023-03-26T02:27:50;0.70;;;0.70;;
6551;SDS011;3309;48.708;9.290;2023-03-26T02:30:19;0.70;;;0.70;;
6551;SDS011;3309;48.708;9.290;2023-03-26T02:32:45;0.70;;;0.70;;
6551;SDS011;3309;48.708;9.290;2023-03-26T02:35:11;0.80;;;0.80;;
6551;SDS011;3309;48.708;9.290;2023-03-26T02:37:38;0.60;;;0.60;;
6551;SDS011;3309;48.708;9.290;2023-03-26T02:40:06;0.53;;;0.53;;
6551;SDS011;3309;48.708;9.290;2023-03-26T02:42:36;0.70;;;0.70;;
6551;SDS011;3309;48.708;9.290;2023-03-26T02:45:02;0.70;;;0.70;;
6551;SDS011;3309;48.708;9.290;2023-03-26T02:47:28;0.70;;;0.70;;
6551;SDS011;3309;48.708;9.290;2023-03-26T02:49:54;0.60;;;0.60;;
6551;SDS011;3309;48.708;9.290;2023-03-26T02:52:20;0.70;;;0.70;;
6551;SDS011;3309;48.708;9.290;2023-03-26T02:54:46;0.60;;;0.60;;
6551;SDS011;3309;48.708;9.290;2023-03-26T02:57:12;0.60;;;0.60;;
6551;SDS011;3309;48.708;9.290;2023-03-26T02:59:38;0.70;;;0.70;;
6551;SDS011;3309;48.708;9.290;2023-03-26T03:02:04;0.60;;;0.60;;
6551;SDS011;3309;48.708;9.290;2023-03-26T03:04:30;0.70;;;0.70;;
6551;SDS011;3309;48.708;9.290;2023-03-26T03:06:56;0.60;;;0.60;;
6551;SDS011;3309;48.708;9.290;2023-03-26T03:09:23;0.70;;;0.70;;
6551;SDS011;3309;48.708;9.290;2023-03-26T03:11:49;0.60;;;0.60;;
6551;SDS011;3309;48.708;9.290;2023-03-26T03:14:16;0.70;;;0.70;;
6551;SDS011;3309;48.708;9.290;2023-03-26T03:16:42;0.57;;;0.57;;
6551;SDS011;3309;48.708;9.290;2023-03-26T03:19:09;0.50;;;0.50;;
6551;SDS011;3309;48.708;9.290;2023-03-26T03:21:35;0.60;;;0.60;;
6551;SDS011;3309;48.708;9.290;2023-03-26T03:24:01;0.63;;;0.63;;
6551;SDS011;3309;48.708;9.290;2023-03-26T03:26:27;0.67;;;0.67;;
6551;SDS011;3309;48.708;9.290;2023-03-26T03:28:54;0.80;;;0.80;;
6551;SDS011;3309;48.708;9.290;2023-03-26T03:31:21;0.70;;;0.70;;
6551;SDS011;3309;48.708;9.290;2023-03-26T03:33:48;0.60;;;0.60;;
6551;SDS011;3309;48.708;9.290;2023-03-26T03:36:15;0.70;;;0.70;;
6551;SDS011;3309;48.708;9.290;2023-03-26T03:38:48;0.70;;;0.70;;
6551;SDS011;3309;48.708;9.290;2023-03-26T03:41:14;0.70;;;0.70;;
6551;SDS011;3309;48.708;9.290;2023-03-26T03:43:42;0.60;;;0.60;;
6551;SDS011;3309;48.708;9.290;2023-03-26T03:46:08;0.63;;;0.63;;
6551;SDS011;3309;48.708;9.290;2023-03-26T03:48:34;0.60;;;0.60;;
6551;SDS011;3309;48.708;9.290;2023-03-26T03:51:03;0.60;;;0.60;;
6551;SDS011;3309;48.708;9.290;2023-03-26T03:53:29;0.60;;;0.60;;
6551;SDS011;3309;48.708;9.290;2023-03-26T03:55:55;0.63;;;0.63;;
6551;SDS011;3309;48.708;9.290;2023-03-26T03:58:25;0.73;;;0.73;;
6551;SDS011;3309;48.708;9.290;2023-03-26T04:01:09;0.60;;;0.60;;
6551;SDS011;3309;48.708;9.290;2023-03-26T04:03:37;0.60;;;0.60;;
6551;SDS011;3309;48.708;9.290;2023-03-26T04:06:06;0.50;;;0.50;;
6551;SDS011;3309;48.708;9.290;2023-03-26T04:08:35;0.70;;;0.70;;
6551;SDS011;3309;48.708;9.290;2023-03-26T04:11:01;0.60;;;0.60;;
6551;SDS011;3309;48.708;9.290;2023-03-26T04:13:27;0.70;;;0.70;;
6551;SDS011;3309;48.708;9.290;2023-03-26T04:15:53;0.60;;;0.60;;
6551;SDS011;3309;48.708;9.290;2023-03-26T04:18:19;0.70;;;0.70;;
6551;SDS011;3309;48.708;9.290;2023-03-26T04:20:46;0.67;;;0.67;;
6551;SDS011;3309;48.708;9.290;2023-03-26T04:23:13;0.70;;;0.70;;
6551;SDS011;3309;48.708;9.290;2023-03-26T04:25:41;0.60;;;0.60;;
6551;SDS011;3309;48.708;9.290;2023-03-26T04:28:07;0.63;;;0.63;;
6551;SDS011;3309;48.708;9.290;2023-03-26T04:30:35;0.67;;;0.67;;
6551;SDS011;3309;48.708;9.290;2023-03-26T04:33:02;0.60;;;0.60;;
6551;SDS011;3309;48.708;9.290;2023-03-26T04:35:33;0.67;;;0.67;;
6551;SDS011;3309;48.708;9.290;2023-03-26T04:37:59;0.70;;;0.70;;
6551;SDS011;3309;48.708;9.290;2023-03-26T04:40:26;0.70;;;0.70;;
6551;SDS011;3309;48.708;9.290;2023-03-26T04:42:54;0.70;;;0.70;;
6551;SDS011;3309;48.708;9.290;2023-03-26T04:45:23;0.70;;;0.70;;
6551;SDS011;3309;48.708;9.290;2023-03-26T04:47:49;0.70;;;0.70;;
6551;SDS011;3309;48.708;9.290;2023-03-26T04:50:15;0.77;;;0.77;;
6551;SDS011;3309;48.708;9.290;2023-03-26T04:52:41;0.60;;;0.60;;
6551;SDS011;3309;48.708;9.290;2023-03-26T04:55:24;0.70;;;0.70;;
6551;SDS011;3309;48.708;9.290;2023-03-26T04:57:53;0.63;;;0.63;;
6551;SDS011;3309;48.708;9.290;2023-03-26T05:00:20;0.60;;;0.60;;
6551;SDS011;3309;48.708;9.290;2023-03-26T05:02:46;0.70;;;0.70;;
6551;SDS011;3309;48.708;9.290;2023-03-26T05:05:14;0.70;;;0.70;;
6551;SDS011;3309;48.708;9.290;2023-03-26T05:07:40;0.70;;;0.70;;
6551;SDS011;3309;48.708;9.290;2023-03-26T05:10:06;0.60;;;0.60;;
6551;SDS011;3309;48.708;9.290;2023-03-26T05:12:33;0.70;;;0.70;;
6551;SDS011;3309;48.708;9.290;2023-03-26T05:14:59;0.73;;;0.73;;
6551;SDS011;3309;48.708;9.290;2023-03-26T05:17:25;0.87;;;0.87;;
6551;SDS011;3309;48.708;9.290;2023-03-26T05:19:54;0.70;;;0.70;;
6551;SDS011;3309;48.708;9.290;2023-03-26T05:22:21;0.70;;;0.70;;
6551;SDS011;3309;48.708;9.290;2023-03-26T05:24:47;0.70;;;0.70;;
6551;SDS011;3309;48.708;9.290;2023-03-26T05:27:16;0.70;;;0.70;;
6551;SDS011;3309;48.708;9.290;2023-03-26T05:29:44;0.70;;;0.70;;
6551;SDS011;3309;48.708;9.290;2023-03-26T05:32:10;0.70;;;0.70;;
6551;SDS011;3309;48.708;9.290;2023-03-26T05:34:39;0.70;;;0.70;;
6551;SDS011;3309;48.708;9.290;2023-03-26T05:37:05;0.70;;;0.70;;
6551;SDS011;3309;48.708;9.290;2023-03-26T05:39:33;0.70;;;0.70;;
6551;SDS011;3309;48.708;9.290;2023-03-26T05:41:59;0.70;;;0.70;;
6551;SDS011;3309;48.708;9.290;2023-03-26T05:44:25;0.60;;;0.60;;
6551;SDS011;3309;48.708;9.290;2023-03-26T05:46:51;0.73;;;0.73;;
6551;SDS011;3309;48.708;9.290;2023-03-26T05:49:17;0.80;;;0.80;;
6551;SDS011;3309;48.708;9.290;2023-03-26T05:51:43;0.70;;;0.70;;
6551;SDS011;3309;48.708;9.290;2023-03-26T05:54:09;0.50;;;0.50;;
6551;SDS011;3309;48.708;9.290;2023-03-26T05:56:36;0.73;;;0.73;;
6551;SDS011;3309;48.708;9.290;2023-03-26T05:59:02;0.70;;;0.70;;
6551;SDS011;3309;48.708;9.290;2023-03-26T06:01:27;0.77;;;0.77;;
6551;SDS011;3309;48.708;9.290;2023-03-26T06:03:53;0.63;;;0.63;;
6551;SDS011;3309;48.708;9.290;2023-03-26T06:06:19;0.70;;;0.70;;
6551;SDS011;3309;48.708;9.290;2023-03-26T06:08:50;0.60;;;0.60;;
6551;SDS011;3309;48.708;9.290;2023-03-26T06:11:18;0.60;;;0.60;;
6551;SDS011;3309;48.708;9.290;2023-03-26T06:13:44;0.60;;;0.60;;
6551;SDS011;3309;48.708;9.290;2023-03-26T06:16:11;0.70;;;0.70;;
6551;SDS011;3309;48.708;9.290;2023-03-26T06:18:37;0.70;;;0.70;;
6551;SDS011;3309;48.708;9.290;2023-03-26T06:21:03;0.70;;;0.70;;
6551;SDS011;3309;48.708;9.290;2023-03-26T06:23:29;0.80;;;0.80;;
6551;SDS011;3309;48.708;9.290;2023-03-26T06:25:55;0.70;;;0.70;;
6551;SDS011;3309;48.708;9.290;2023-03-26T06:28:21;0.67;;;0.67;;
6551;SDS011;3309;48.708;9.290;2023-03-26T06:30:48;0.70;;;0.70;;
6551;SDS011;3309;48.708;9.290;2023-03-26T06:33:14;0.70;;;0.70;;
6551;SDS011;3309;48.708;9.290;2023-03-26T06:35:40;0.70;;;0.70;;
6551;SDS011;3309;48.708;9.290;2023-03-26T06:38:08;0.70;;;0.70;;
6551;SDS011;3309;48.708;9.290;2023-03-26T06:40:34;0.70;;;0.70;;
6551;SDS011;3309;48.708;9.290;2023-03-26T06:43:00;0.70;;;0.70;;
6551;SDS011;3309;48.708;9.290;2023-03-26T06:45:26;0.60;;;0.60;;
6551;SDS011;3309;48.708;9.290;2023-03-26T06:47:53;0.60;;;0.60;;
6551;SDS011;3309;48.708;9.290;2023-03-26T06:50:19;0.60;;;0.60;;
6551;SDS011;3309;48.708;9.290;2023-03-26T06:52:45;0.80;;;0.80;;
6551;SDS011;3309;48.708;9.290;2023-03-26T06:55:11;0.70;;;0.70;;
6551;SDS011;3309;48.708;9.290;2023-03-26T06:57:37;0.70;;;0.70;;
6551;SDS011;3309;48.708;9.290;2023-03-26T07:00:04;0.70;;;0.70;;
6551;SDS011;3309;48.708;9.290;2023-03-26T07:02:30;0.50;;;0.50;;
6551;SDS011;3309;48.708;9.290;2023-03-26T07:04:57;0.70;;;0.70;;
6551;SDS011;3309;48.708;9.290;2023-03-26T07:07:23;0.60;;;0.60;;
6551;SDS011;3309;48.708;9.290;2023-03-26T07:09:49;0.70;;;0.70;;
6551;SDS011;3309;48.708;9.290;2023-03-26T07:12:16;0.60;;;0.60;;
6551;SDS011;3309;48.708;9.290;2023-03-26T07:14:42;0.70;;;0.70;;
6551;SDS011;3309;48.708;9.290;2023-03-26T07:17:08;0.80;;;0.80;;
6551;SDS011;3309;48.708;9.290;2023-03-26T07:19:34;0.70;;;0.70;;
6551;SDS011;3309;48.708;9.290;2023-03-26T07:22:00;0.70;;;0.70;;
6551;SDS011;3309;48.708;9.290;2023-03-26T07:24:26;0.60;;;0.60;;
6551;SDS011;3309;48.708;9.290;2023-03-26T07:29:55;0.70;;;0.70;;
6551;SDS011;3309;48.708;9.290;2023-03-26T07:32:24;0.70;;;0.70;;
6551;SDS011;3309;48.708;9.290;2023-03-26T07:41:11;0.60;;;0.60;;
6551;SDS011;3309;48.708;9.290;2023-03-26T07:43:09;0.70;;;0.70;;
6551;SDS011;3309;48.708;9.290;2023-03-26T07:45:40;0.60;;;0.60;;
6551;SDS011;3309;48.708;9.290;2023-03-26T07:48:16;0.70;;;0.70;;
6551;SDS011;3309;48.708;9.290;2023-03-26T07:50:44;0.60;;;0.60;;
6551;SDS011;3309;48.708;9.290;2023-03-26T07:53:10;0.70;;;0.70;;
6551;SDS011;3309;48.708;9.290;2023-03-26T07:55:49;0.63;;;0.63;;
6551;SDS011;3309;48.708;9.290;2023-03-26T08:00:55;0.70;;;0.70;;
6551;SDS011;3309;48.708;9.290;2023-03-26T08:06:04;0.80;;;0.80;;
6551;SDS011;3309;48.708;9.290;2023-03-26T08:08:37;0.60;;;0.60;;
6551;SDS011;3309;48.708;9.290;2023-03-26T08:11:09;0.70;;;0.70;;
6551;SDS011;3309;48.708;9.290;2023-03-26T08:13:38;0.60;;;0.60;;
6551;SDS011;3309;48.708;9.290;2023-03-26T08:16:11;0.70;;;0.70;;
6551;SDS011;3309;48.708;9.290;2023-03-26T08:19:01;0.70;;;0.70;;
6551;SDS011;3309;48.708;9.290;2023-03-26T08:21:35;0.53;;;0.53;;
6551;SDS011;3309;48.708;9.290;2023-03-26T08:29:24;0.60;;;0.60;;
6551;SDS011;3309;48.708;9.290;2023-03-26T08:31:52;0.70;;;0.70;;
6551;SDS011;3309;48.708;9.290;2023-03-26T08:34:20;0.70;;;0.70;;
6551;SDS011;3309;48.708;9.290;2023-03-26T08:36:46;0.70;;;0.70;;
6551;SDS011;3309;48.708;9.290;2023-03-26T08:39:11;0.67;;;0.67;;
6551;SDS011;3309;48.708;9.290;2023-03-26T08:46:41;0.77;;;0.77;;
6551;SDS011;3309;48.708;9.290;2023-03-26T08:54:24;0.70;;;0.70;;
6551;SDS011;3309;48.708;9.290;2023-03-26T08:59:27;0.60;;;0.60;;
6551;SDS011;3309;48.708;9.290;2023-03-26T09:07:38;0.70;;;0.70;;
6551;SDS011;3309;48.708;9.290;2023-03-26T09:15:27;0.70;;;0.70;;
6551;SDS011;3309;48.708;9.290;2023-03-26T09:38:42;0.60;;;0.60;;
6551;SDS011;3309;48.708;9.290;2023-03-26T09:51:50;0.40;;;0.40;;
6551;SDS011;3309;48.708;9.290;2023-03-26T09:54:26;0.40;;;0.40;;
6551;SDS011;3309;48.708;9.290;2023-03-26T09:57:13;0.40;;;0.40;;
6551;SDS011;3309;48.708;9.290;2023-03-26T10:13:00;0.37;;;0.37;;
6551;SDS011;3309;48.708;9.290;2023-03-26T10:25:50;0.40;;;0.40;;
6551;SDS011;3309;48.708;9.290;2023-03-26T10:28:21;0.50;;;0.50;;
6551;SDS011;3309;48.708;9.290;2023-03-26T10:36:19;0.50;;;0.50;;
6551;SDS011;3309;48.708;9.290;2023-03-26T10:38:57;0.40;;;0.40;;
6551;SDS011;3309;48.708;9.290;2023-03-26T10:41:43;0.50;;;0.50;;
6551;SDS011;3309;48.708;9.290;2023-03-26T10:52:14;0.33;;;0.33;;
6551;SDS011;3309;48.708;9.290;2023-03-26T10:59:45;0.40;;;0.40;;
6551;SDS011;3309;48.708;9.290;2023-03-26T11:02:28;0.30;;;0.30;;
6551;SDS011;3309;48.708;9.290;2023-03-26T11:04:59;0.50;;;0.50;;
6551;SDS011;3309;48.708;9.290;2023-03-26T11:07:34;0.40;;;0.40;;
6551;SDS011;3309;48.708;9.290;2023-03-26T11:10:09;0.30;;;0.30;;
6551;SDS011;3309;48.708;9.290;2023-03-26T11:12:44;0.47;;;0.47;;
6551;SDS011;3309;48.708;9.290;2023-03-26T11:15:14;0.40;;;0.40;;
6551;SDS011;3309;48.708;9.290;2023-03-26T11:17:48;0.40;;;0.40;;
6551;SDS011;3309;48.708;9.290;2023-03-26T11:20:23;0.40;;;0.40;;
6551;SDS011;3309;48.708;9.290;2023-03-26T11:33:09;0.47;;;0.47;;
6551;SDS011;3309;48.708;9.290;2023-03-26T11:35:36;0.40;;;0.40;;
6551;SDS011;3309;48.708;9.290;2023-03-26T11:41:01;0.40;;;0.40;;
6551;SDS011;3309;48.708;9.290;2023-03-26T11:43:30;0.50;;;0.50;;
6551;SDS011;3309;48.708;9.290;2023-03-26T11:45:58;0.40;;;0.40;;
6551;SDS011;3309;48.708;9.290;2023-03-26T11:48:25;0.40;;;0.40;;
6551;SDS011;3309;48.708;9.290;2023-03-26T11:51:01;0.40;;;0.40;;
6551;SDS011;3309;48.708;9.290;2023-03-26T11:53:31;0.40;;;0.40;;
6551;SDS011;3309;48.708;9.290;2023-03-26T12:01:23;0.40;;;0.40;;
6551;SDS011;3309;48.708;9.290;2023-03-26T12:03:57;0.30;;;0.30;;
6551;SDS011;3309;48.708;9.290;2023-03-26T12:06:27;0.43;;;0.43;;
6551;SDS011;3309;48.708;9.290;2023-03-26T12:08:53;0.40;;;0.40;;
6551;SDS011;3309;48.708;9.290;2023-03-26T12:11:27;0.40;;;0.40;;
6551;SDS011;3309;48.708;9.290;2023-03-26T12:13:58;0.40;;;0.40;;
6551;SDS011;3309;48.708;9.290;2023-03-26T12:16:25;0.33;;;0.33;;
6551;SDS011;3309;48.708;9.290;2023-03-26T12:18:59;0.50;;;0.50;;
6551;SDS011;3309;48.708;9.290;2023-03-26T12:21:25;0.30;;;0.30;;
6551;SDS011;3309;48.708;9.290;2023-03-26T12:29:03;0.30;;;0.30;;
6551;SDS011;3309;48.708;9.290;2023-03-26T12:31:30;0.40;;;0.40;;
6551;SDS011;3309;48.708;9.290;2023-03-26T12:34:11;0.50;;;0.50;;
6551;SDS011;3309;48.708;9.290;2023-03-26T12:36:39;0.40;;;0.40;;
6551;SDS011;3309;48.708;9.290;2023-03-26T12:41:53;0.30;;;0.30;;
6551;SDS011;3309;48.708;9.290;2023-03-26T12:44:22;0.40;;;0.40;;
6551;SDS011;3309;48.708;9.290;2023-03-26T12:46:50;0.43;;;0.43;;
6551;SDS011;3309;48.708;9.290;2023-03-26T12:49:19;0.50;;;0.50;;
6551;SDS011;3309;48.708;9.290;2023-03-26T12:52:03;0.40;;;0.40;;
6551;SDS011;3309;48.708;9.290;2023-03-26T12:57:20;0.30;;;0.30;;
6551;SDS011;3309;48.708;9.290;2023-03-26T13:08:05;0.50;;;0.50;;
6551;SDS011;3309;48.708;9.290;2023-03-26T13:13:10;0.40;;;0.40;;
6551;SDS011;3309;48.708;9.290;2023-03-26T13:15:43;0.40;;;0.40;;
6551;SDS011;3309;48.708;9.290;2023-03-26T13:18:18;0.40;;;0.40;;
6551;SDS011;3309;48.708;9.290;2023-03-26T13:20:48;0.40;;;0.40;;
6551;SDS011;3309;48.708;9.290;2023-03-26T13:23:21;0.40;;;0.40;;
6551;SDS011;3309;48.708;9.290;2023-03-26T13:35:50;0.50;;;0.50;;
6551;SDS011;3309;48.708;9.290;2023-03-26T13:38:37;0.40;;;0.40;;
6551;SDS011;3309;48.708;9.290;2023-03-26T13:41:17;0.57;;;0.57;;
6551;SDS011;3309;48.708;9.290;2023-03-26T13:46:39;0.47;;;0.47;;
6551;SDS011;3309;48.708;9.290;2023-03-26T13:49:12;0.50;;;0.50;;
6551;SDS011;3309;48.708;9.290;2023-03-26T13:54:26;0.50;;;0.50;;
6551;SDS011;3309;48.708;9.290;2023-03-26T13:59:29;0.50;;;0.50;;
6551;SDS011;3309;48.708;9.290;2023-03-26T14:01:57;0.50;;;0.50;;
6551;SDS011;3309;48.708;9.290;2023-03-26T14:04:26;0.43;;;0.43;;
6551;SDS011;3309;48.708;9.290;2023-03-26T14:14:31;0.40;;;0.40;;
6551;SDS011;3309;48.708;9.290;2023-03-26T14:17:09;0.40;;;0.40;;
6551;SDS011;3309;48.708;9.290;2023-03-26T14:22:49;0.53;;;0.53;;
6551;SDS011;3309;48.708;9.290;2023-03-26T14:28:11;0.40;;;0.40;;
6551;SDS011;3309;48.708;9.290;2023-03-26T14:38:33;0.50;;;0.50;;
6551;SDS011;3309;48.708;9.290;2023-03-26T14:41:17;0.50;;;0.50;;
6551;SDS011;3309;48.708;9.290;2023-03-26T14:44:01;0.50;;;0.50;;
6551;SDS011;3309;48.708;9.290;2023-03-26T14:51:51;0.60;;;0.60;;
6551;SDS011;3309;48.708;9.290;2023-03-26T14:54:22;0.60;;;0.60;;
6551;SDS011;3309;48.708;9.290;2023-03-26T14:56:52;0.70;;;0.70;;
6551;SDS011;3309;48.708;9.290;2023-03-26T15:12:36;0.50;;;0.50;;
6551;SDS011;3309;48.708;9.290;2023-03-26T15:17:54;0.70;;;0.70;;
6551;SDS011;3309;48.708;9.290;2023-03-26T15:28:15;0.50;;;0.50;;
6551;SDS011;3309;48.708;9.290;2023-03-26T15:30:57;0.70;;;0.70;;
6551;SDS011;3309;48.708;9.290;2023-03-26T15:41:16;0.63;;;0.63;;
6551;SDS011;3309;48.708;9.290;2023-03-26T15:46:48;0.60;;;0.60;;
6551;SDS011;3309;48.708;9.290;2023-03-26T15:52:07;0.70;;;0.70;;
6551;SDS011;3309;48.708;9.290;2023-03-26T15:54:49;0.70;;;0.70;;
6551;SDS011;3309;48.708;9.290;2023-03-26T16:00:02;0.60;;;0.60;;
6551;SDS011;3309;48.708;9.290;2023-03-26T16:02:44;0.60;;;0.60;;
6551;SDS011;3309;48.708;9.290;2023-03-26T16:07:55;0.60;;;0.60;;
6551;SDS011;3309;48.708;9.290;2023-03-26T16:15:23;0.53;;;0.53;;
6551;SDS011;3309;48.708;9.290;2023-03-26T16:20:33;0.60;;;0.60;;
6551;SDS011;3309;48.708;9.290;2023-03-26T16:23:00;0.67;;;0.67;;
6551;SDS011;3309;48.708;9.290;2023-03-26T16:30:43;0.60;;;0.60;;
6551;SDS011;3309;48.708;9.290;2023-03-26T16:33:17;0.60;;;0.60;;
6551;SDS011;3309;48.708;9.290;2023-03-26T16:38:11;0.53;;;0.53;;
6551;SDS011;3309;48.708;9.290;2023-03-26T16:41:21;0.60;;;0.60;;
6551;SDS011;3309;48.708;9.290;2023-03-26T16:43:32;0.60;;;0.60;;
6551;SDS011;3309;48.708;9.290;2023-03-26T16:46:15;0.70;;;0.70;;
6551;SDS011;3309;48.708;9.290;2023-03-26T16:56:32;0.77;;;0.77;;
6551;SDS011;3309;48.708;9.290;2023-03-26T16:59:05;0.50;;;0.50;;
6551;SDS011;3309;48.708;9.290;2023-03-26T17:04:03;0.67;;;0.67;;
6551;SDS011;3309;48.708;9.290;2023-03-26T17:09:00;0.60;;;0.60;;
6551;SDS011;3309;48.708;9.290;2023-03-26T17:14:18;0.60;;;0.60;;
6551;SDS011;3309;48.708;9.290;2023-03-26T17:32:42;0.60;;;0.60;;
6551;SDS011;3309;48.708;9.290;2023-03-26T17:35:12;0.70;;;0.70;;
6551;SDS011;3309;48.708;9.290;2023-03-26T17:37:43;0.70;;;0.70;;
6551;SDS011;3309;48.708;9.290;2023-03-26T17:40:42;0.70;;;0.70;;
6551;SDS011;3309;48.708;9.290;2023-03-26T17:43:10;0.60;;;0.60;;
6551;SDS011;3309;48.708;9.290;2023-03-26T17:45:37;0.70;;;0.70;;
6551;SDS011;3309;48.708;9.290;2023-03-26T17:48:22;0.60;;;0.60;;
6551;SDS011;3309;48.708;9.290;2023-03-26T17:50:56;0.60;;;0.60;;
6551;SDS011;3309;48.708;9.290;2023-03-26T17:53:26;0.50;;;0.50;;
6551;SDS011;3309;48.708;9.290;2023-03-26T17:55:54;0.70;;;0.70;;
6551;SDS011;3309;48.708;9.290;2023-03-26T17:58:27;0.53;;;0.53;;
6551;SDS011;3309;48.708;9.290;2023-03-26T18:03:44;0.70;;;0.70;;
6551;SDS011;3309;48.708;9.290;2023-03-26T18:06:17;0.60;;;0.60;;
6551;SDS011;3309;48.708;9.290;2023-03-26T18:16:48;0.70;;;0.70;;
6551;SDS011;3309;48.708;9.290;2023-03-26T18:19:17;0.60;;;0.60;;
6551;SDS011;3309;48.708;9.290;2023-03-26T18:21:53;0.73;;;0.73;;
6551;SDS011;3309;48.708;9.290;2023-03-26T18:27:04;0.60;;;0.60;;
6551;SDS011;3309;48.708;9.290;2023-03-26T18:29:31;0.60;;;0.60;;
6551;SDS011;3309;48.708;9.290;2023-03-26T18:31:59;0.67;;;0.67;;
6551;SDS011;3309;48.708;9.290;2023-03-26T18:34:30;0.60;;;0.60;;
6551;SDS011;3309;48.708;9.290;2023-03-26T18:37:16;0.70;;;0.70;;
6551;SDS011;3309;48.708;9.290;2023-03-26T18:39:55;0.70;;;0.70;;
6551;SDS011;3309;48.708;9.290;2023-03-26T18:42:21;0.60;;;0.60;;
6551;SDS011;3309;48.708;9.290;2023-03-26T18:44:48;0.67;;;0.67;;
6551;SDS011;3309;48.708;9.290;2023-03-26T18:47:15;0.70;;;0.70;;
6551;SDS011;3309;48.708;9.290;2023-03-26T18:49:42;0.70;;;0.70;;
6551;SDS011;3309;48.708;9.290;2023-03-26T18:52:11;0.60;;;0.60;;
6551;SDS011;3309;48.708;9.290;2023-03-26T18:54:38;0.60;;;0.60;;
6551;SDS011;3309;48.708;9.290;2023-03-26T18:57:08;0.60;;;0.60;;
6551;SDS011;3309;48.708;9.290;2023-03-26T18:59:34;0.60;;;0.60;;
6551;SDS011;3309;48.708;9.290;2023-03-26T19:02:04;0.60;;;0.60;;
6551;SDS011;3309;48.708;9.290;2023-03-26T19:04:32;0.70;;;0.70;;
6551;SDS011;3309;48.708;9.290;2023-03-26T19:07:00;0.70;;;0.70;;
6551;SDS011;3309;48.708;9.290;2023-03-26T19:09:28;0.70;;;0.70;;
6551;SDS011;3309;48.708;9.290;2023-03-26T19:11:55;0.67;;;0.67;;
6551;SDS011;3309;48.708;9.290;2023-03-26T19:14:22;0.70;;;0.70;;
6551;SDS011;3309;48.708;9.290;2023-03-26T19:16:51;0.70;;;0.70;;
6551;SDS011;3309;48.708;9.290;2023-03-26T19:19:20;0.60;;;0.60;;
6551;SDS011;3309;48.708;9.290;2023-03-26T19:21:47;0.60;;;0.60;;
6551;SDS011;3309;48.708;9.290;2023-03-26T19:24:14;0.60;;;0.60;;
6551;SDS011;3309;48.708;9.290;2023-03-26T19:26:41;0.70;;;0.70;;
6551;SDS011;3309;48.708;9.290;2023-03-26T19:29:09;0.67;;;0.67;;
6551;SDS011;3309;48.708;9.290;2023-03-26T19:31:37;0.60;;;0.60;;
6551;SDS011;3309;48.708;9.290;2023-03-26T19:36:47;0.60;;;0.60;;
6551;SDS011;3309;48.708;9.290;2023-03-26T19:39:22;0.63;;;0.63;;
6551;SDS011;3309;48.708;9.290;2023-03-26T19:41:49;0.70;;;0.70;;
6551;SDS011;3309;48.708;9.290;2023-03-26T19:44:17;0.60;;;0.60;;
6551;SDS011;3309;48.708;9.290;2023-03-26T19:46:45;0.53;;;0.53;;
6551;SDS011;3309;48.708;9.290;2023-03-26T19:49:22;0.60;;;0.60;;
6551;SDS011;3309;48.708;9.290;2023-03-26T19:51:49;0.70;;;0.70;;
6551;SDS011;3309;48.708;9.290;2023-03-26T19:54:17;0.60;;;0.60;;
6551;SDS011;3309;48.708;9.290;2023-03-26T19:56:43;0.67;;;0.67;;
6551;SDS011;3309;48.708;9.290;2023-03-26T19:59:10;0.50;;;0.50;;
6551;SDS011;3309;48.708;9.290;2023-03-26T20:01:36;0.70;;;0.70;;
6551;SDS011;3309;48.708;9.290;2023-03-26T20:04:03;0.70;;;0.70;;
6551;SDS011;3309;48.708;9.290;2023-03-26T20:06:30;0.77;;;0.77;;
6551;SDS011;3309;48.708;9.290;2023-03-26T20:08:57;0.67;;;0.67;;
6551;SDS011;3309;48.708;9.290;2023-03-26T20:13:50;0.70;;;0.70;;
6551;SDS011;3309;48.708;9.290;2023-03-26T20:18:51;0.67;;;0.67;;
6551;SDS011;3309;48.708;9.290;2023-03-26T20:21:21;0.70;;;0.70;;
6551;SDS011;3309;48.708;9.290;2023-03-26T20:23:47;0.60;;;0.60;;
6551;SDS011;3309;48.708;9.290;2023-03-26T20:26:17;0.70;;;0.70;;
6551;SDS011;3309;48.708;9.290;2023-03-26T20:28:44;0.60;;;0.60;;
6551;SDS011;3309;48.708;9.290;2023-03-26T20:31:13;0.70;;;0.70;;
6551;SDS011;3309;48.708;9.290;2023-03-26T20:33:39;0.70;;;0.70;;
6551;SDS011;3309;48.708;9.290;2023-03-26T20:36:07;0.60;;;0.60;;
6551;SDS011;3309;48.708;9.290;2023-03-26T20:38:34;0.60;;;0.60;;
6551;SDS011;3309;48.708;9.290;2023-03-26T20:41:01;0.70;;;0.70;;
6551;SDS011;3309;48.708;9.290;2023-03-26T20:43:28;0.80;;;0.80;;
6551;SDS011;3309;48.708;9.290;2023-03-26T20:45:54;0.63;;;0.63;;
6551;SDS011;3309;48.708;9.290;2023-03-26T20:48:22;0.80;;;0.80;;
6551;SDS011;3309;48.708;9.290;2023-03-26T20:50:50;0.80;;;0.80;;